sensor_id;sensor_type;location;lat;lon;timestamp;temperature;humidity
65291;SHT30;51893;59.754;10.110;2024-03-02T00:01:56;5.17;87.42
65291;SHT30;51893;59.754;10.110;2024-03-02T00:04:24;5.23;87.34
65291;SHT30;51893;59.754;10.110;2024-03-02T00:06:54;5.26;87.21
65291;SHT30;51893;59.754;10.110;2024-03-02T00:09:23;5.16;87.14
65291;SHT30;51893;59.754;10.110;2024-03-02T00:11:52;5.14;87.32
65291;SHT30;51893;59.754;10.110;2024-03-02T00:14:20;5.20;87.31
65291;SHT30;51893;59.754;10.110;2024-03-02T00:16:49;5.17;87.23
65291;SHT30;51893;59.754;10.110;2024-03-02T00:19:17;5.19;87.19
65291;SHT30;51893;59.754;10.110;2024-03-02T00:21:45;5.22;87.20
65291;SHT30;51893;59.754;10.110;2024-03-02T00:27:14;5.37;86.98
65291;SHT30;51893;59.754;10.110;2024-03-02T00:29:47;5.42;86.82
65291;SHT30;51893;59.754;10.110;2024-03-02T00:32:15;5.36;86.55
65291;SHT30;51893;59.754;10.110;2024-03-02T00:34:45;5.36;86.58
65291;SHT30;51893;59.754;10.110;2024-03-02T00:37:13;5.30;86.57
65291;SHT30;51893;59.754;10.110;2024-03-02T00:39:42;5.25;86.66
65291;SHT30;51893;59.754;10.110;2024-03-02T00:42:11;5.23;86.70
65291;SHT30;51893;59.754;10.110;2024-03-02T00:44:39;5.26;86.79
65291;SHT30;51893;59.754;10.110;2024-03-02T00:47:08;5.32;86.80
65291;SHT30;51893;59.754;10.110;2024-03-02T00:49:37;5.40;86.66
65291;SHT30;51893;59.754;10.110;2024-03-02T00:52:08;5.42;86.40
65291;SHT30;51893;59.754;10.110;2024-03-02T00:54:36;5.41;86.36
65291;SHT30;51893;59.754;10.110;2024-03-02T00:57:04;5.45;86.36
65291;SHT30;51893;59.754;10.110;2024-03-02T00:59:37;5.43;86.28
65291;SHT30;51893;59.754;10.110;2024-03-02T01:02:07;5.28;86.20
65291;SHT30;51893;59.754;10.110;2024-03-02T01:04:35;5.09;86.34
65291;SHT30;51893;59.754;10.110;2024-03-02T01:07:03;4.98;86.56
65291;SHT30;51893;59.754;10.110;2024-03-02T01:09:31;4.96;86.73
65291;SHT30;51893;59.754;10.110;2024-03-02T01:12:00;5.03;86.77
65291;SHT30;51893;59.754;10.110;2024-03-02T01:14:28;5.14;86.56
65291;SHT30;51893;59.754;10.110;2024-03-02T01:16:56;5.26;86.13
65291;SHT30;51893;59.754;10.110;2024-03-02T01:19:24;5.26;85.87
65291;SHT30;51893;59.754;10.110;2024-03-02T01:21:53;5.22;85.76
65291;SHT30;51893;59.754;10.110;2024-03-02T01:24:21;5.15;85.87
65291;SHT30;51893;59.754;10.110;2024-03-02T01:26:49;5.07;85.91
65291;SHT30;51893;59.754;10.110;2024-03-02T01:29:17;5.01;86.05
65291;SHT30;51893;59.754;10.110;2024-03-02T01:31:45;5.06;86.04
65291;SHT30;51893;59.754;10.110;2024-03-02T01:34:13;5.10;85.85
65291;SHT30;51893;59.754;10.110;2024-03-02T01:36:41;5.09;85.77
65291;SHT30;51893;59.754;10.110;2024-03-02T01:39:12;5.11;85.70
65291;SHT30;51893;59.754;10.110;2024-03-02T01:41:40;5.17;85.67
65291;SHT30;51893;59.754;10.110;2024-03-02T01:44:08;5.16;85.67
65291;SHT30;51893;59.754;10.110;2024-03-02T01:46:36;5.05;85.66
65291;SHT30;51893;59.754;10.110;2024-03-02T01:49:04;4.90;85.80
65291;SHT30;51893;59.754;10.110;2024-03-02T01:51:34;4.76;86.04
65291;SHT30;51893;59.754;10.110;2024-03-02T01:54:02;4.66;86.16
65291;SHT30;51893;59.754;10.110;2024-03-02T01:56:31;4.62;86.46
65291;SHT30;51893;59.754;10.110;2024-03-02T01:58:59;4.68;86.54
65291;SHT30;51893;59.754;10.110;2024-03-02T02:01:27;4.64;86.35
65291;SHT30;51893;59.754;10.110;2024-03-02T02:03:56;4.72;86.18
65291;SHT30;51893;59.754;10.110;2024-03-02T02:06:24;4.71;85.97
65291;SHT30;51893;59.754;10.110;2024-03-02T02:08:52;4.74;85.96
65291;SHT30;51893;59.754;10.110;2024-03-02T02:11:20;4.63;85.83
65291;SHT30;51893;59.754;10.110;2024-03-02T02:13:48;4.52;86.06
65291;SHT30;51893;59.754;10.110;2024-03-02T02:16:17;4.50;86.29
65291;SHT30;51893;59.754;10.110;2024-03-02T02:18:46;4.49;86.35
65291;SHT30;51893;59.754;10.110;2024-03-02T02:21:16;4.49;86.34
65291;SHT30;51893;59.754;10.110;2024-03-02T02:23:45;4.45;86.39
65291;SHT30;51893;59.754;10.110;2024-03-02T02:26:16;4.43;86.57
65291;SHT30;51893;59.754;10.110;2024-03-02T02:28:44;4.52;86.61
65291;SHT30;51893;59.754;10.110;2024-03-02T02:31:15;4.57;86.71
65291;SHT30;51893;59.754;10.110;2024-03-02T02:33:43;4.59;86.65
65291;SHT30;51893;59.754;10.110;2024-03-02T02:36:11;4.61;86.73
65291;SHT30;51893;59.754;10.110;2024-03-02T02:38:41;4.64;86.93
65291;SHT30;51893;59.754;10.110;2024-03-02T02:41:14;4.70;86.91
65291;SHT30;51893;59.754;10.110;2024-03-02T02:43:42;4.79;86.88
65291;SHT30;51893;59.754;10.110;2024-03-02T02:46:10;4.84;86.89
65291;SHT30;51893;59.754;10.110;2024-03-02T02:48:38;4.89;86.90
65291;SHT30;51893;59.754;10.110;2024-03-02T02:51:06;4.92;86.77
65291;SHT30;51893;59.754;10.110;2024-03-02T02:53:35;4.89;86.48
65291;SHT30;51893;59.754;10.110;2024-03-02T02:56:03;4.72;86.34
65291;SHT30;51893;59.754;10.110;2024-03-02T02:58:32;4.64;86.37
65291;SHT30;51893;59.754;10.110;2024-03-02T03:01:00;4.57;86.32
65291;SHT30;51893;59.754;10.110;2024-03-02T03:03:29;4.48;86.43
65291;SHT30;51893;59.754;10.110;2024-03-02T03:05:58;4.43;86.50
65291;SHT30;51893;59.754;10.110;2024-03-02T03:08:26;4.43;86.62
65291;SHT30;51893;59.754;10.110;2024-03-02T03:10:54;4.49;86.67
65291;SHT30;51893;59.754;10.110;2024-03-02T03:13:24;4.56;86.70
65291;SHT30;51893;59.754;10.110;2024-03-02T03:15:53;4.61;86.98
65291;SHT30;51893;59.754;10.110;2024-03-02T03:18:21;4.67;87.22
65291;SHT30;51893;59.754;10.110;2024-03-02T03:20:49;4.74;87.21
65291;SHT30;51893;59.754;10.110;2024-03-02T03:23:17;4.72;86.87
65291;SHT30;51893;59.754;10.110;2024-03-02T03:25:46;4.65;86.75
65291;SHT30;51893;59.754;10.110;2024-03-02T03:28:14;4.63;86.57
65291;SHT30;51893;59.754;10.110;2024-03-02T03:30:42;4.59;86.59
65291;SHT30;51893;59.754;10.110;2024-03-02T03:33:10;4.59;86.58
65291;SHT30;51893;59.754;10.110;2024-03-02T03:35:38;4.58;86.50
65291;SHT30;51893;59.754;10.110;2024-03-02T03:38:06;4.63;86.56
65291;SHT30;51893;59.754;10.110;2024-03-02T03:40:35;4.68;86.58
65291;SHT30;51893;59.754;10.110;2024-03-02T03:43:03;4.70;86.68
65291;SHT30;51893;59.754;10.110;2024-03-02T03:45:31;4.72;86.64
65291;SHT30;51893;59.754;10.110;2024-03-02T03:48:02;4.78;86.49
65291;SHT30;51893;59.754;10.110;2024-03-02T03:50:30;4.76;86.48
65291;SHT30;51893;59.754;10.110;2024-03-02T03:52:59;4.79;86.67
65291;SHT30;51893;59.754;10.110;2024-03-02T03:55:27;4.81;86.57
65291;SHT30;51893;59.754;10.110;2024-03-02T03:57:55;4.78;86.51
65291;SHT30;51893;59.754;10.110;2024-03-02T04:00:23;4.80;86.52
65291;SHT30;51893;59.754;10.110;2024-03-02T04:02:51;4.84;86.68
65291;SHT30;51893;59.754;10.110;2024-03-02T04:05:19;4.88;86.51
65291;SHT30;51893;59.754;10.110;2024-03-02T04:07:47;4.88;86.42
65291;SHT30;51893;59.754;10.110;2024-03-02T04:10:15;4.81;86.38
65291;SHT30;51893;59.754;10.110;2024-03-02T04:12:44;4.72;86.40
65291;SHT30;51893;59.754;10.110;2024-03-02T04:15:12;4.68;86.51
65291;SHT30;51893;59.754;10.110;2024-03-02T04:17:41;4.62;86.64
65291;SHT30;51893;59.754;10.110;2024-03-02T04:20:09;4.50;86.64
65291;SHT30;51893;59.754;10.110;2024-03-02T04:22:40;4.46;86.92
65291;SHT30;51893;59.754;10.110;2024-03-02T04:25:08;4.35;87.19
65291;SHT30;51893;59.754;10.110;2024-03-02T04:27:37;4.25;87.49
65291;SHT30;51893;59.754;10.110;2024-03-02T04:30:05;4.25;87.76
65291;SHT30;51893;59.754;10.110;2024-03-02T04:32:34;4.28;87.80
65291;SHT30;51893;59.754;10.110;2024-03-02T04:35:04;4.27;87.83
65291;SHT30;51893;59.754;10.110;2024-03-02T04:37:36;4.30;88.01
65291;SHT30;51893;59.754;10.110;2024-03-02T04:40:04;4.34;87.93
65291;SHT30;51893;59.754;10.110;2024-03-02T04:42:36;4.32;87.93
65291;SHT30;51893;59.754;10.110;2024-03-02T04:45:12;4.33;87.97
65291;SHT30;51893;59.754;10.110;2024-03-02T04:47:40;4.33;88.03
65291;SHT30;51893;59.754;10.110;2024-03-02T04:50:08;4.37;88.00
65291;SHT30;51893;59.754;10.110;2024-03-02T04:52:37;4.43;87.95
65291;SHT30;51893;59.754;10.110;2024-03-02T04:55:05;4.38;87.87
65291;SHT30;51893;59.754;10.110;2024-03-02T04:57:52;4.38;87.81
65291;SHT30;51893;59.754;10.110;2024-03-02T05:00:22;4.34;87.67
65291;SHT30;51893;59.754;10.110;2024-03-02T05:02:51;4.32;87.70
65291;SHT30;51893;59.754;10.110;2024-03-02T05:05:19;4.27;87.74
65291;SHT30;51893;59.754;10.110;2024-03-02T05:07:48;4.22;87.66
65291;SHT30;51893;59.754;10.110;2024-03-02T05:10:17;4.20;87.80
65291;SHT30;51893;59.754;10.110;2024-03-02T05:12:45;4.19;87.81
65291;SHT30;51893;59.754;10.110;2024-03-02T05:15:14;4.18;88.00
65291;SHT30;51893;59.754;10.110;2024-03-02T05:17:42;4.23;88.06
65291;SHT30;51893;59.754;10.110;2024-03-02T05:20:11;4.24;87.94
65291;SHT30;51893;59.754;10.110;2024-03-02T05:22:39;4.26;87.90
65291;SHT30;51893;59.754;10.110;2024-03-02T05:25:07;4.35;87.81
65291;SHT30;51893;59.754;10.110;2024-03-02T05:27:37;4.36;87.61
65291;SHT30;51893;59.754;10.110;2024-03-02T05:30:07;4.35;87.54
65291;SHT30;51893;59.754;10.110;2024-03-02T05:32:36;4.30;87.50
65291;SHT30;51893;59.754;10.110;2024-03-02T05:35:05;4.31;87.60
65291;SHT30;51893;59.754;10.110;2024-03-02T05:37:34;4.32;87.67
65291;SHT30;51893;59.754;10.110;2024-03-02T05:40:02;4.30;87.70
65291;SHT30;51893;59.754;10.110;2024-03-02T05:42:31;4.30;87.79
65291;SHT30;51893;59.754;10.110;2024-03-02T05:44:59;4.32;87.80
65291;SHT30;51893;59.754;10.110;2024-03-02T05:47:27;4.34;87.72
65291;SHT30;51893;59.754;10.110;2024-03-02T05:49:57;4.28;87.61
65291;SHT30;51893;59.754;10.110;2024-03-02T05:52:25;4.25;87.59
65291;SHT30;51893;59.754;10.110;2024-03-02T05:54:53;4.20;87.48
65291;SHT30;51893;59.754;10.110;2024-03-02T05:57:21;4.20;87.50
65291;SHT30;51893;59.754;10.110;2024-03-02T06:00:16;4.27;87.49
65291;SHT30;51893;59.754;10.110;2024-03-02T06:02:45;4.23;87.26
65291;SHT30;51893;59.754;10.110;2024-03-02T06:05:16;4.14;87.30
65291;SHT30;51893;59.754;10.110;2024-03-02T06:07:45;4.07;87.48
65291;SHT30;51893;59.754;10.110;2024-03-02T06:10:13;4.00;87.61
65291;SHT30;51893;59.754;10.110;2024-03-02T06:12:42;3.98;87.74
65291;SHT30;51893;59.754;10.110;2024-03-02T06:15:10;3.95;87.68
65291;SHT30;51893;59.754;10.110;2024-03-02T06:17:38;3.89;87.73
65291;SHT30;51893;59.754;10.110;2024-03-02T06:20:08;3.90;87.80
65291;SHT30;51893;59.754;10.110;2024-03-02T06:22:37;3.85;87.74
65291;SHT30;51893;59.754;10.110;2024-03-02T06:25:05;3.82;87.86
65291;SHT30;51893;59.754;10.110;2024-03-02T06:27:34;3.83;87.92
65291;SHT30;51893;59.754;10.110;2024-03-02T06:30:02;3.82;87.92
65291;SHT30;51893;59.754;10.110;2024-03-02T06:32:33;3.73;87.95
65291;SHT30;51893;59.754;10.110;2024-03-02T06:35:02;3.78;88.08
65291;SHT30;51893;59.754;10.110;2024-03-02T06:37:32;3.78;88.10
65291;SHT30;51893;59.754;10.110;2024-03-02T06:40:00;3.80;88.11
65291;SHT30;51893;59.754;10.110;2024-03-02T06:42:28;3.82;88.10
65291;SHT30;51893;59.754;10.110;2024-03-02T06:45:02;3.83;88.01
65291;SHT30;51893;59.754;10.110;2024-03-02T06:47:31;3.85;88.08
65291;SHT30;51893;59.754;10.110;2024-03-02T06:49:59;3.88;88.00
65291;SHT30;51893;59.754;10.110;2024-03-02T06:52:29;3.86;87.90
65291;SHT30;51893;59.754;10.110;2024-03-02T06:54:58;3.84;87.95
65291;SHT30;51893;59.754;10.110;2024-03-02T06:57:26;3.87;88.13
65291;SHT30;51893;59.754;10.110;2024-03-02T06:59:54;3.91;88.24
65291;SHT30;51893;59.754;10.110;2024-03-02T07:02:28;3.98;88.32
65291;SHT30;51893;59.754;10.110;2024-03-02T07:04:56;4.03;88.26
65291;SHT30;51893;59.754;10.110;2024-03-02T07:07:24;4.02;88.22
65291;SHT30;51893;59.754;10.110;2024-03-02T07:09:53;4.00;88.32
65291;SHT30;51893;59.754;10.110;2024-03-02T07:12:22;4.09;88.64
65291;SHT30;51893;59.754;10.110;2024-03-02T07:14:51;4.28;89.13
65291;SHT30;51893;59.754;10.110;2024-03-02T07:17:39;4.40;88.85
65291;SHT30;51893;59.754;10.110;2024-03-02T07:20:07;4.39;88.40
65291;SHT30;51893;59.754;10.110;2024-03-02T07:22:36;4.40;88.08
65291;SHT30;51893;59.754;10.110;2024-03-02T07:25:09;4.36;87.91
65291;SHT30;51893;59.754;10.110;2024-03-02T07:27:57;4.27;87.80
65291;SHT30;51893;59.754;10.110;2024-03-02T07:30:26;4.21;87.86
65291;SHT30;51893;59.754;10.110;2024-03-02T07:32:55;4.13;87.93
65291;SHT30;51893;59.754;10.110;2024-03-02T07:35:23;4.17;88.14
65291;SHT30;51893;59.754;10.110;2024-03-02T07:37:55;4.19;88.20
65291;SHT30;51893;59.754;10.110;2024-03-02T07:40:24;4.16;88.34
65291;SHT30;51893;59.754;10.110;2024-03-02T07:42:53;4.20;88.61
65291;SHT30;51893;59.754;10.110;2024-03-02T07:45:21;4.30;89.00
65291;SHT30;51893;59.754;10.110;2024-03-02T07:47:49;4.41;89.26
65291;SHT30;51893;59.754;10.110;2024-03-02T07:50:18;4.56;89.42
65291;SHT30;51893;59.754;10.110;2024-03-02T07:52:47;4.63;89.40
65291;SHT30;51893;59.754;10.110;2024-03-02T07:55:16;4.66;89.39
65291;SHT30;51893;59.754;10.110;2024-03-02T07:57:44;4.68;89.40
65291;SHT30;51893;59.754;10.110;2024-03-02T08:00:12;4.66;89.49
65291;SHT30;51893;59.754;10.110;2024-03-02T08:02:41;4.66;89.54
65291;SHT30;51893;59.754;10.110;2024-03-02T08:05:12;4.70;89.60
65291;SHT30;51893;59.754;10.110;2024-03-02T08:07:40;4.71;89.64
65291;SHT30;51893;59.754;10.110;2024-03-02T08:10:10;4.75;89.71
65291;SHT30;51893;59.754;10.110;2024-03-02T08:12:39;4.78;89.78
65291;SHT30;51893;59.754;10.110;2024-03-02T08:15:07;4.79;89.80
65291;SHT30;51893;59.754;10.110;2024-03-02T08:17:36;4.79;89.80
65291;SHT30;51893;59.754;10.110;2024-03-02T08:20:10;4.81;89.84
65291;SHT30;51893;59.754;10.110;2024-03-02T08:22:40;4.84;89.86
65291;SHT30;51893;59.754;10.110;2024-03-02T08:25:08;4.86;89.87
65291;SHT30;51893;59.754;10.110;2024-03-02T08:27:38;4.88;89.87
65291;SHT30;51893;59.754;10.110;2024-03-02T08:30:08;4.93;89.87
65291;SHT30;51893;59.754;10.110;2024-03-02T08:32:38;4.95;89.79
65291;SHT30;51893;59.754;10.110;2024-03-02T08:35:08;4.95;89.71
65291;SHT30;51893;59.754;10.110;2024-03-02T08:37:37;4.94;89.66
65291;SHT30;51893;59.754;10.110;2024-03-02T08:40:09;4.95;89.65
65291;SHT30;51893;59.754;10.110;2024-03-02T08:42:41;4.97;89.59
65291;SHT30;51893;59.754;10.110;2024-03-02T08:45:15;4.98;89.50
65291;SHT30;51893;59.754;10.110;2024-03-02T08:47:44;5.00;89.48
65291;SHT30;51893;59.754;10.110;2024-03-02T08:50:12;5.01;89.43
65291;SHT30;51893;59.754;10.110;2024-03-02T08:52:40;5.02;89.41
65291;SHT30;51893;59.754;10.110;2024-03-02T08:55:09;5.02;89.40
65291;SHT30;51893;59.754;10.110;2024-03-02T08:57:39;5.01;89.35
65291;SHT30;51893;59.754;10.110;2024-03-02T09:00:12;5.03;89.40
65291;SHT30;51893;59.754;10.110;2024-03-02T09:02:43;5.04;89.32
65291;SHT30;51893;59.754;10.110;2024-03-02T09:05:12;5.05;89.28
65291;SHT30;51893;59.754;10.110;2024-03-02T09:07:41;5.08;89.25
65291;SHT30;51893;59.754;10.110;2024-03-02T09:10:09;5.10;89.16
65291;SHT30;51893;59.754;10.110;2024-03-02T09:12:38;5.11;89.06
65291;SHT30;51893;59.754;10.110;2024-03-02T09:15:07;5.13;88.98
65291;SHT30;51893;59.754;10.110;2024-03-02T09:17:36;5.18;88.92
65291;SHT30;51893;59.754;10.110;2024-03-02T09:20:05;5.21;88.90
65291;SHT30;51893;59.754;10.110;2024-03-02T09:22:35;5.26;88.89
65291;SHT30;51893;59.754;10.110;2024-03-02T09:25:03;5.32;88.80
65291;SHT30;51893;59.754;10.110;2024-03-02T09:27:31;5.35;88.67
65291;SHT30;51893;59.754;10.110;2024-03-02T09:29:59;5.34;88.60
65291;SHT30;51893;59.754;10.110;2024-03-02T09:32:28;5.34;88.58
65291;SHT30;51893;59.754;10.110;2024-03-02T09:34:56;5.29;88.51
65291;SHT30;51893;59.754;10.110;2024-03-02T09:37:25;5.25;88.59
65291;SHT30;51893;59.754;10.110;2024-03-02T09:39:54;5.25;88.61
65291;SHT30;51893;59.754;10.110;2024-03-02T09:42:23;5.25;88.64
65291;SHT30;51893;59.754;10.110;2024-03-02T09:44:54;5.23;88.62
65291;SHT30;51893;59.754;10.110;2024-03-02T09:47:23;5.22;88.69
65291;SHT30;51893;59.754;10.110;2024-03-02T09:49:51;5.26;88.71
65291;SHT30;51893;59.754;10.110;2024-03-02T09:52:20;5.26;88.70
65291;SHT30;51893;59.754;10.110;2024-03-02T09:54:50;5.25;88.70
65291;SHT30;51893;59.754;10.110;2024-03-02T09:57:19;5.26;88.75
65291;SHT30;51893;59.754;10.110;2024-03-02T09:59:47;5.30;88.80
65291;SHT30;51893;59.754;10.110;2024-03-02T10:02:15;5.30;88.78
65291;SHT30;51893;59.754;10.110;2024-03-02T10:04:48;5.32;88.79
65291;SHT30;51893;59.754;10.110;2024-03-02T10:07:17;5.34;88.74
65291;SHT30;51893;59.754;10.110;2024-03-02T10:09:47;5.33;88.70
65291;SHT30;51893;59.754;10.110;2024-03-02T10:12:17;5.34;88.70
65291;SHT30;51893;59.754;10.110;2024-03-02T10:14:46;5.38;88.70
65291;SHT30;51893;59.754;10.110;2024-03-02T10:17:17;5.41;88.60
65291;SHT30;51893;59.754;10.110;2024-03-02T10:19:45;5.47;88.60
65291;SHT30;51893;59.754;10.110;2024-03-02T10:22:13;5.50;88.46
65291;SHT30;51893;59.754;10.110;2024-03-02T10:24:42;5.51;88.38
65291;SHT30;51893;59.754;10.110;2024-03-02T10:27:22;5.51;88.31
65291;SHT30;51893;59.754;10.110;2024-03-02T10:29:57;5.52;88.26
65291;SHT30;51893;59.754;10.110;2024-03-02T10:32:25;5.47;88.23
65291;SHT30;51893;59.754;10.110;2024-03-02T10:34:54;5.47;88.35
65291;SHT30;51893;59.754;10.110;2024-03-02T10:37:23;5.49;88.30
65291;SHT30;51893;59.754;10.110;2024-03-02T10:39:52;5.44;88.18
65291;SHT30;51893;59.754;10.110;2024-03-02T10:42:21;5.43;88.17
65291;SHT30;51893;59.754;10.110;2024-03-02T10:44:51;5.31;87.86
65291;SHT30;51893;59.754;10.110;2024-03-02T10:47:21;5.17;87.93
65291;SHT30;51893;59.754;10.110;2024-03-02T10:49:51;5.16;88.09
65291;SHT30;51893;59.754;10.110;2024-03-02T10:52:22;5.19;88.33
65291;SHT30;51893;59.754;10.110;2024-03-02T10:54:51;5.15;88.11
65291;SHT30;51893;59.754;10.110;2024-03-02T10:57:21;5.03;87.95
65291;SHT30;51893;59.754;10.110;2024-03-02T10:59:52;4.97;87.96
65291;SHT30;51893;59.754;10.110;2024-03-02T11:02:28;4.93;88.05
65291;SHT30;51893;59.754;10.110;2024-03-02T11:05:00;4.83;88.19
65291;SHT30;51893;59.754;10.110;2024-03-02T11:07:38;4.78;88.44
65291;SHT30;51893;59.754;10.110;2024-03-02T11:10:08;4.81;88.50
65291;SHT30;51893;59.754;10.110;2024-03-02T11:12:48;4.80;88.46
65291;SHT30;51893;59.754;10.110;2024-03-02T11:15:29;4.74;88.46
65291;SHT30;51893;59.754;10.110;2024-03-02T11:18:00;4.68;88.47
65291;SHT30;51893;59.754;10.110;2024-03-02T11:20:32;4.69;88.63
65291;SHT30;51893;59.754;10.110;2024-03-02T11:23:06;4.70;88.70
65291;SHT30;51893;59.754;10.110;2024-03-02T11:25:36;4.69;88.74
65291;SHT30;51893;59.754;10.110;2024-03-02T11:28:07;4.66;88.81
65291;SHT30;51893;59.754;10.110;2024-03-02T11:30:48;4.66;88.95
65291;SHT30;51893;59.754;10.110;2024-03-02T11:33:22;4.66;88.95
65291;SHT30;51893;59.754;10.110;2024-03-02T11:35:53;4.67;88.96
65291;SHT30;51893;59.754;10.110;2024-03-02T11:38:24;4.68;89.04
65291;SHT30;51893;59.754;10.110;2024-03-02T11:40:56;4.73;89.09
65291;SHT30;51893;59.754;10.110;2024-03-02T11:43:25;4.78;89.08
65291;SHT30;51893;59.754;10.110;2024-03-02T11:45:56;4.80;89.01
65291;SHT30;51893;59.754;10.110;2024-03-02T11:48:35;4.83;88.94
65291;SHT30;51893;59.754;10.110;2024-03-02T11:51:08;4.82;88.90
65291;SHT30;51893;59.754;10.110;2024-03-02T11:53:36;4.83;88.85
65291;SHT30;51893;59.754;10.110;2024-03-02T11:56:07;4.84;88.90
65291;SHT30;51893;59.754;10.110;2024-03-02T11:58:39;4.86;88.96
65291;SHT30;51893;59.754;10.110;2024-03-02T12:01:10;4.89;88.96
65291;SHT30;51893;59.754;10.110;2024-03-02T12:03:41;4.91;89.00
65291;SHT30;51893;59.754;10.110;2024-03-02T12:06:09;4.95;88.93
65291;SHT30;51893;59.754;10.110;2024-03-02T12:08:41;4.95;88.92
65291;SHT30;51893;59.754;10.110;2024-03-02T12:11:09;4.92;88.90
65291;SHT30;51893;59.754;10.110;2024-03-02T12:13:51;4.92;88.98
65291;SHT30;51893;59.754;10.110;2024-03-02T12:16:25;4.95;89.00
65291;SHT30;51893;59.754;10.110;2024-03-02T12:18:54;4.99;89.00
65291;SHT30;51893;59.754;10.110;2024-03-02T12:21:22;5.06;88.93
65291;SHT30;51893;59.754;10.110;2024-03-02T12:23:52;5.07;88.81
65291;SHT30;51893;59.754;10.110;2024-03-02T12:26:21;5.03;88.79
65291;SHT30;51893;59.754;10.110;2024-03-02T12:28:50;4.99;88.81
65291;SHT30;51893;59.754;10.110;2024-03-02T12:31:20;4.95;88.75
65291;SHT30;51893;59.754;10.110;2024-03-02T12:33:48;4.97;88.79
65291;SHT30;51893;59.754;10.110;2024-03-02T12:36:16;4.97;88.83
65291;SHT30;51893;59.754;10.110;2024-03-02T12:38:44;4.96;88.89
65291;SHT30;51893;59.754;10.110;2024-03-02T12:41:14;5.02;88.98
65291;SHT30;51893;59.754;10.110;2024-03-02T12:43:43;5.09;88.89
65291;SHT30;51893;59.754;10.110;2024-03-02T12:46:11;5.10;88.85
65291;SHT30;51893;59.754;10.110;2024-03-02T12:48:40;5.13;88.80
65291;SHT30;51893;59.754;10.110;2024-03-02T12:51:08;5.16;88.83
65291;SHT30;51893;59.754;10.110;2024-03-02T12:53:37;5.16;88.83
65291;SHT30;51893;59.754;10.110;2024-03-02T12:56:05;5.19;88.67
65291;SHT30;51893;59.754;10.110;2024-03-02T12:58:42;5.13;88.50
65291;SHT30;51893;59.754;10.110;2024-03-02T13:01:10;5.05;88.52
65291;SHT30;51893;59.754;10.110;2024-03-02T13:03:39;5.03;88.51
65291;SHT30;51893;59.754;10.110;2024-03-02T13:06:07;5.05;88.50
65291;SHT30;51893;59.754;10.110;2024-03-02T13:08:37;5.06;88.44
65291;SHT30;51893;59.754;10.110;2024-03-02T13:11:06;4.99;88.33
65291;SHT30;51893;59.754;10.110;2024-03-02T13:13:34;4.96;88.47
65291;SHT30;51893;59.754;10.110;2024-03-02T13:16:03;4.96;88.44
65291;SHT30;51893;59.754;10.110;2024-03-02T13:18:44;4.97;88.38
65291;SHT30;51893;59.754;10.110;2024-03-02T13:21:13;4.97;88.45
65291;SHT30;51893;59.754;10.110;2024-03-02T13:23:42;4.96;88.43
65291;SHT30;51893;59.754;10.110;2024-03-02T13:26:10;4.82;88.28
65291;SHT30;51893;59.754;10.110;2024-03-02T13:28:40;4.76;88.35
65291;SHT30;51893;59.754;10.110;2024-03-02T13:31:08;4.74;88.50
65291;SHT30;51893;59.754;10.110;2024-03-02T13:33:37;4.76;88.62
65291;SHT30;51893;59.754;10.110;2024-03-02T13:36:05;4.77;88.63
65291;SHT30;51893;59.754;10.110;2024-03-02T13:38:34;4.74;88.66
65291;SHT30;51893;59.754;10.110;2024-03-02T13:41:01;4.78;88.79
65291;SHT30;51893;59.754;10.110;2024-03-02T13:43:30;4.84;88.80
65291;SHT30;51893;59.754;10.110;2024-03-02T13:46:02;4.92;88.84
65291;SHT30;51893;59.754;10.110;2024-03-02T13:48:32;5.03;88.76
65291;SHT30;51893;59.754;10.110;2024-03-02T13:51:00;5.08;88.62
65291;SHT30;51893;59.754;10.110;2024-03-02T13:53:29;5.09;88.60
65291;SHT30;51893;59.754;10.110;2024-03-02T13:55:58;5.14;88.55
65291;SHT30;51893;59.754;10.110;2024-03-02T13:58:26;5.11;88.49
65291;SHT30;51893;59.754;10.110;2024-03-02T14:00:55;5.16;88.54
65291;SHT30;51893;59.754;10.110;2024-03-02T14:03:24;5.19;88.49
65291;SHT30;51893;59.754;10.110;2024-03-02T14:05:57;5.18;88.50
65291;SHT30;51893;59.754;10.110;2024-03-02T14:08:30;5.21;88.47
65291;SHT30;51893;59.754;10.110;2024-03-02T14:10:58;5.24;88.40
65291;SHT30;51893;59.754;10.110;2024-03-02T14:13:28;5.21;88.20
65291;SHT30;51893;59.754;10.110;2024-03-02T14:15:59;5.01;88.07
65291;SHT30;51893;59.754;10.110;2024-03-02T14:18:28;4.96;88.22
65291;SHT30;51893;59.754;10.110;2024-03-02T14:20:56;4.96;88.40
65291;SHT30;51893;59.754;10.110;2024-03-02T14:23:25;5.05;88.46
65291;SHT30;51893;59.754;10.110;2024-03-02T14:25:57;5.07;88.40
65291;SHT30;51893;59.754;10.110;2024-03-02T14:28:26;5.06;88.45
65291;SHT30;51893;59.754;10.110;2024-03-02T14:31:16;5.10;88.42
65291;SHT30;51893;59.754;10.110;2024-03-02T14:33:45;5.12;88.40
65291;SHT30;51893;59.754;10.110;2024-03-02T14:36:14;5.15;88.36
65291;SHT30;51893;59.754;10.110;2024-03-02T14:38:42;5.15;88.31
65291;SHT30;51893;59.754;10.110;2024-03-02T14:41:12;5.12;88.26
65291;SHT30;51893;59.754;10.110;2024-03-02T14:43:41;5.10;88.31
65291;SHT30;51893;59.754;10.110;2024-03-02T14:46:10;5.06;88.31
65291;SHT30;51893;59.754;10.110;2024-03-02T14:48:40;5.11;88.53
65291;SHT30;51893;59.754;10.110;2024-03-02T14:51:08;5.19;88.47
65291;SHT30;51893;59.754;10.110;2024-03-02T14:53:38;5.22;88.33
65291;SHT30;51893;59.754;10.110;2024-03-02T14:56:06;5.21;88.30
65291;SHT30;51893;59.754;10.110;2024-03-02T14:58:35;5.18;88.32
65291;SHT30;51893;59.754;10.110;2024-03-02T15:01:04;5.07;88.20
65291;SHT30;51893;59.754;10.110;2024-03-02T15:03:37;5.01;88.20
65291;SHT30;51893;59.754;10.110;2024-03-02T15:06:05;5.02;88.28
65291;SHT30;51893;59.754;10.110;2024-03-02T15:08:35;5.02;88.21
65291;SHT30;51893;59.754;10.110;2024-03-02T15:11:03;4.94;88.17
65291;SHT30;51893;59.754;10.110;2024-03-02T15:13:31;4.96;88.37
65291;SHT30;51893;59.754;10.110;2024-03-02T15:16:01;5.00;88.36
65291;SHT30;51893;59.754;10.110;2024-03-02T15:18:29;4.98;88.34
65291;SHT30;51893;59.754;10.110;2024-03-02T15:20:58;4.93;88.31
65291;SHT30;51893;59.754;10.110;2024-03-02T15:23:26;4.88;88.41
65291;SHT30;51893;59.754;10.110;2024-03-02T15:25:57;4.86;88.59
65291;SHT30;51893;59.754;10.110;2024-03-02T15:28:28;4.88;88.60
65291;SHT30;51893;59.754;10.110;2024-03-02T15:30:58;4.84;88.58
65291;SHT30;51893;59.754;10.110;2024-03-02T15:33:27;4.90;88.74
65291;SHT30;51893;59.754;10.110;2024-03-02T15:35:59;4.93;88.71
65291;SHT30;51893;59.754;10.110;2024-03-02T15:38:30;4.93;88.68
65291;SHT30;51893;59.754;10.110;2024-03-02T15:41:05;4.92;88.72
65291;SHT30;51893;59.754;10.110;2024-03-02T15:43:34;4.92;88.74
65291;SHT30;51893;59.754;10.110;2024-03-02T15:46:03;4.90;88.73
65291;SHT30;51893;59.754;10.110;2024-03-02T15:48:34;4.83;88.81